createdAt,value
2017-06-23T00:01:48.916Z,8.05
2017-06-23T00:04:17.336Z,7.12
2017-06-23T00:06:45.607Z,8.07
2017-06-23T00:09:13.892Z,7.50
2017-06-23T00:11:42.196Z,7.95
2017-06-23T00:14:11.285Z,7.85
2017-06-23T00:16:39.559Z,7.60
2017-06-23T00:19:07.871Z,8.25
2017-06-23T00:21:36.148Z,8.45
2017-06-23T00:24:05.192Z,7.80
2017-06-23T00:26:33.515Z,7.60
2017-06-23T00:29:01.811Z,7.05
2017-06-23T00:31:30.084Z,8.02
2017-06-23T00:33:58.406Z,8.02
2017-06-23T00:36:26.708Z,6.90
2017-06-23T00:38:55.028Z,8.25
2017-06-23T00:41:23.339Z,7.72
2017-06-23T00:43:51.620Z,8.02
2017-06-23T00:46:19.932Z,7.53
2017-06-23T00:48:48.255Z,8.02
2017-06-23T00:51:16.535Z,7.75
2017-06-23T00:53:44.811Z,9.20
2017-06-23T00:56:13.352Z,8.75
2017-06-23T00:58:42.415Z,8.52
2017-06-23T01:01:10.696Z,8.25
2017-06-23T01:03:39.984Z,8.38
2017-06-23T01:06:09.016Z,8.38
2017-06-23T01:08:38.076Z,8.55
2017-06-23T01:11:06.388Z,8.75
2017-06-23T01:13:35.438Z,8.73
2017-06-23T01:16:03.713Z,8.65
2017-06-23T01:18:32.039Z,8.98
2017-06-23T01:21:00.320Z,9.35
2017-06-23T01:23:28.613Z,9.57
2017-06-23T01:25:57.792Z,8.95
2017-06-23T01:28:26.135Z,9.32
2017-06-23T01:30:54.415Z,8.48
2017-06-23T01:33:23.500Z,8.45
2017-06-23T01:35:51.975Z,9.13
2017-06-23T01:38:21.007Z,8.57
2017-06-23T01:40:49.340Z,9.60
2017-06-23T01:43:17.651Z,10.02
2017-06-23T01:45:45.935Z,9.68
2017-06-23T01:48:15.024Z,9.23
2017-06-23T01:50:43.307Z,9.05
2017-06-23T01:53:11.584Z,9.50
2017-06-23T01:55:40.056Z,9.00
2017-06-23T01:58:08.368Z,8.68
2017-06-23T02:00:37.408Z,9.90
2017-06-23T02:03:05.720Z,9.13
2017-06-23T02:05:33.992Z,10.07
2017-06-23T02:08:02.268Z,8.88
2017-06-23T02:10:30.608Z,9.80
2017-06-23T02:12:58.892Z,10.30
2017-06-23T02:15:27.163Z,9.80
2017-06-23T02:17:55.488Z,9.25
2017-06-23T02:20:23.776Z,10.13
2017-06-23T02:22:52.056Z,9.57
2017-06-23T02:25:20.460Z,9.60
2017-06-23T02:27:49.504Z,9.82
2017-06-23T02:30:17.792Z,10.82
2017-06-23T02:32:46.220Z,9.23
2017-06-23T02:35:14.488Z,9.75
2017-06-23T02:37:42.764Z,10.48
2017-06-23T02:40:11.072Z,8.20
2017-06-23T02:42:39.352Z,9.65
2017-06-23T02:45:07.636Z,8.85
2017-06-23T02:47:35.939Z,8.68
2017-06-23T02:50:04.974Z,8.18
2017-06-23T02:52:33.248Z,8.27
2017-06-23T02:55:01.560Z,8.75
2017-06-23T02:57:29.845Z,8.65
2017-06-23T02:59:58.108Z,9.57
2017-06-23T03:02:26.412Z,7.90
2017-06-23T03:04:55.449Z,8.32
2017-06-23T03:07:23.723Z,7.75
2017-06-23T03:09:52.039Z,8.27
2017-06-23T03:12:20.328Z,7.03
2017-06-23T03:14:48.605Z,7.00
2017-06-23T03:17:16.914Z,8.50
2017-06-23T03:19:45.959Z,7.40
2017-06-23T03:22:14.228Z,8.23
2017-06-23T03:24:42.637Z,7.05
2017-06-23T03:27:10.916Z,7.80
2017-06-23T03:29:39.188Z,7.40
2017-06-23T03:32:07.491Z,7.25
2017-06-23T03:34:36.537Z,8.10
2017-06-23T03:37:04.808Z,7.32
2017-06-23T03:39:33.220Z,8.10
2017-06-23T03:42:01.492Z,7.90
2017-06-23T03:44:29.763Z,7.47
2017-06-23T03:46:58.078Z,7.68
2017-06-23T03:49:26.351Z,8.02
2017-06-23T03:51:55.387Z,7.47
2017-06-23T03:54:23.692Z,7.12
2017-06-23T03:56:52.728Z,9.15
2017-06-23T03:59:21.003Z,8.65
2017-06-23T04:01:49.315Z,8.70
2017-06-23T04:04:17.591Z,8.60
2017-06-23T04:06:45.872Z,10.77
2017-06-23T04:09:14.383Z,10.07
2017-06-23T04:11:43.412Z,9.05
2017-06-23T04:14:11.696Z,9.57
2017-06-23T04:16:40.191Z,8.40
2017-06-23T04:19:09.228Z,9.15
2017-06-23T04:21:37.495Z,8.60
2017-06-23T04:24:05.996Z,10.00
2017-06-23T04:26:35.032Z,8.98
2017-06-23T04:29:03.320Z,9.90
2017-06-23T04:31:31.728Z,9.82
2017-06-23T04:34:00.136Z,10.55
2017-06-23T04:36:28.407Z,10.18
2017-06-23T04:38:56.885Z,8.57
2017-06-23T04:41:25.928Z,10.52
2017-06-23T04:43:54.204Z,9.57
2017-06-23T04:46:22.519Z,11.75
2017-06-23T04:48:50.816Z,11.10
2017-06-23T04:51:19.111Z,10.73
2017-06-23T04:53:48.197Z,10.52
2017-06-23T04:56:17.272Z,11.07
2017-06-23T04:58:45.635Z,11.02
2017-06-23T05:01:14.224Z,10.63
2017-06-23T05:03:42.518Z,11.05
2017-06-23T05:06:10.792Z,9.75
2017-06-23T05:08:39.216Z,10.98
2017-06-23T05:11:07.500Z,11.50
2017-06-23T05:13:37.717Z,10.20
2017-06-23T05:16:06.400Z,11.50
2017-06-23T05:18:34.680Z,10.68
2017-06-23T05:21:02.952Z,12.10
2017-06-23T05:23:31.279Z,10.60
2017-06-23T05:25:59.611Z,11.38
2017-06-23T05:28:27.883Z,11.65
2017-06-23T05:30:56.201Z,10.65
2017-06-23T05:33:25.248Z,12.00
2017-06-23T05:35:53.520Z,9.63
2017-06-23T05:38:21.962Z,10.60
2017-06-23T05:40:50.239Z,10.32
2017-06-23T05:43:18.516Z,9.85
2017-06-23T05:45:46.952Z,10.63
2017-06-23T05:48:15.233Z,10.63
2017-06-23T05:50:43.508Z,10.40
2017-06-23T05:53:11.821Z,9.43
2017-06-23T05:55:40.096Z,9.32
2017-06-23T05:58:08.380Z,10.18
2017-06-23T06:00:36.700Z,9.18
2017-06-23T06:03:04.975Z,8.80
2017-06-23T06:05:33.254Z,9.35
2017-06-23T06:08:01.572Z,8.85
2017-06-23T06:10:29.847Z,9.52
2017-06-23T06:12:58.115Z,9.30
2017-06-23T06:15:26.439Z,9.02
2017-06-23T06:17:55.479Z,9.30
2017-06-23T06:20:24.654Z,9.32
2017-06-23T06:22:52.960Z,9.38
2017-06-23T06:25:21.243Z,8.77
2017-06-23T06:27:49.515Z,8.98
2017-06-23T06:30:17.928Z,8.90
2017-06-23T06:32:46.268Z,8.70
2017-06-23T06:35:14.540Z,8.65
2017-06-23T06:37:43.081Z,8.80
2017-06-23T06:40:11.359Z,8.90
2017-06-23T06:42:39.645Z,8.38
2017-06-23T06:45:07.973Z,8.90
2017-06-23T06:47:36.252Z,8.90
2017-06-23T06:50:04.523Z,8.77
2017-06-23T06:52:32.852Z,11.73
2017-06-23T06:55:01.127Z,7.85
2017-06-23T06:57:29.405Z,9.40
2017-06-23T06:59:57.795Z,9.40
2017-06-23T07:02:26.831Z,8.38
2017-06-23T07:04:55.120Z,10.00
2017-06-23T07:07:24.197Z,8.75
2017-06-23T07:09:52.477Z,8.32
2017-06-23T07:12:21.518Z,8.07
2017-06-23T07:14:49.824Z,8.73
2017-06-23T07:17:18.094Z,9.18
2017-06-23T07:19:46.377Z,9.38
2017-06-23T07:22:14.691Z,9.73
2017-06-23T07:24:43.840Z,8.68
2017-06-23T07:27:12.120Z,8.20
2017-06-23T07:29:40.445Z,8.57
2017-06-23T07:32:08.716Z,8.45
2017-06-23T07:34:36.992Z,7.87
2017-06-23T07:37:05.500Z,8.68
2017-06-23T07:39:34.535Z,8.52
2017-06-23T07:42:03.035Z,8.25
2017-06-23T07:44:32.314Z,7.60
2017-06-23T07:47:01.348Z,8.60
2017-06-23T07:49:29.622Z,9.15
2017-06-23T07:51:57.928Z,9.20
2017-06-23T07:54:26.970Z,7.87
2017-06-23T07:56:55.233Z,8.52
2017-06-23T07:59:23.550Z,7.87
2017-06-23T08:01:51.815Z,8.35
2017-06-23T08:04:20.096Z,8.25
2017-06-23T08:06:48.404Z,7.80
2017-06-23T08:09:17.460Z,9.32
2017-06-23T08:11:45.744Z,7.82
2017-06-23T08:14:15.040Z,9.65
2017-06-23T08:16:44.077Z,8.70
2017-06-23T08:19:12.363Z,8.32
2017-06-23T08:21:41.440Z,9.02
2017-06-23T08:24:10.484Z,8.80
2017-06-23T08:26:38.760Z,8.80
2017-06-23T08:29:07.272Z,9.45
2017-06-23T08:31:36.306Z,8.18
2017-06-23T08:34:04.592Z,9.35
2017-06-23T08:36:33.060Z,7.93
2017-06-23T08:39:02.100Z,8.35
2017-06-23T08:41:30.375Z,8.60
2017-06-23T08:43:58.695Z,9.30
2017-06-23T08:46:26.963Z,9.15
2017-06-23T08:48:55.240Z,8.85
2017-06-23T08:51:23.586Z,9.95
2017-06-23T08:53:51.868Z,9.18
2017-06-23T08:56:20.148Z,8.40
2017-06-23T08:58:48.460Z,9.05
2017-06-23T09:01:16.748Z,8.27
2017-06-23T09:03:45.028Z,10.50
2017-06-23T09:06:13.528Z,8.73
2017-06-23T09:08:42.573Z,9.20
2017-06-23T09:11:10.840Z,8.23
2017-06-23T09:13:39.174Z,10.20
2017-06-23T09:16:07.455Z,8.40
2017-06-23T09:18:35.730Z,8.35
2017-06-23T09:21:04.212Z,9.27
2017-06-23T09:23:33.253Z,9.40
2017-06-23T09:26:01.529Z,9.23
2017-06-23T09:28:29.990Z,9.23
2017-06-23T09:30:58.852Z,10.05
2017-06-23T09:33:27.127Z,9.75
2017-06-23T09:35:55.671Z,9.90
2017-06-23T09:38:23.940Z,9.50
2017-06-23T09:40:52.273Z,9.65
2017-06-23T09:43:20.592Z,8.80
2017-06-23T09:45:48.864Z,9.05
2017-06-23T09:48:17.142Z,9.65
2017-06-23T09:50:46.236Z,9.00
2017-06-23T09:53:14.515Z,8.50
2017-06-23T09:55:42.784Z,9.90
2017-06-23T09:58:11.112Z,9.98
2017-06-23T10:00:40.152Z,8.32
2017-06-23T10:03:08.427Z,8.75
2017-06-23T10:05:37.017Z,8.20
2017-06-23T10:08:06.062Z,8.73
2017-06-23T10:10:34.365Z,9.10
2017-06-23T10:13:02.680Z,8.70
2017-06-23T10:15:30.949Z,8.82
2017-06-23T10:17:59.240Z,8.18
2017-06-23T10:20:27.567Z,8.60
2017-06-23T10:22:55.840Z,8.32
2017-06-23T10:25:24.120Z,10.88
2017-06-23T10:27:53.212Z,8.45
2017-06-23T10:30:21.488Z,8.80
2017-06-23T10:32:49.773Z,8.55
2017-06-23T10:35:18.199Z,8.40
2017-06-23T10:37:46.482Z,7.30
2017-06-23T10:40:14.752Z,7.68
2017-06-23T10:42:43.070Z,7.47
2017-06-23T10:45:12.157Z,9.10
2017-06-23T10:47:41.196Z,7.37
2017-06-23T10:50:09.516Z,8.70
2017-06-23T10:52:37.797Z,8.18
2017-06-23T10:55:06.068Z,8.73
2017-06-23T10:57:35.205Z,7.80
2017-06-23T11:00:04.248Z,8.77
2017-06-23T11:02:32.527Z,7.62
2017-06-23T11:05:01.630Z,7.62
2017-06-23T11:07:30.672Z,7.45
2017-06-23T11:09:58.955Z,7.75
2017-06-23T11:12:28.031Z,7.43
2017-06-23T11:14:57.075Z,7.87
2017-06-23T11:17:25.370Z,7.72
2017-06-23T11:19:54.465Z,6.78
2017-06-23T11:22:23.496Z,7.03
2017-06-23T11:24:51.772Z,7.12
2017-06-23T11:27:20.209Z,7.15
2017-06-23T11:29:48.502Z,8.27
2017-06-23T11:32:16.796Z,7.25
2017-06-23T11:34:45.111Z,6.15
2017-06-23T11:37:13.608Z,7.50
2017-06-23T11:39:42.652Z,6.20
2017-06-23T11:42:11.044Z,6.93
2017-06-23T11:44:39.321Z,7.10
2017-06-23T11:47:08.369Z,6.82
2017-06-23T11:49:36.684Z,6.62
2017-06-23T11:52:04.956Z,6.70
2017-06-23T11:54:33.244Z,6.95
2017-06-23T11:57:01.574Z,5.37
2017-06-23T11:59:29.852Z,6.40
2017-06-23T12:01:58.420Z,6.20
2017-06-23T12:04:26.744Z,6.00
2017-06-23T12:06:55.019Z,6.53
2017-06-23T12:09:23.307Z,6.82
2017-06-23T12:11:51.624Z,6.40
2017-06-23T12:14:19.917Z,6.72
2017-06-23T12:16:48.193Z,7.32
2017-06-23T12:19:16.526Z,6.30
2017-06-23T12:21:44.800Z,5.28
2017-06-23T12:24:13.079Z,6.10
2017-06-23T12:26:41.399Z,6.72
2017-06-23T12:29:09.675Z,6.07
2017-06-23T12:31:37.951Z,6.60
2017-06-23T12:34:06.273Z,6.62
2017-06-23T12:36:35.323Z,5.90
2017-06-23T12:39:03.599Z,5.50
2017-06-23T12:41:31.993Z,5.75
2017-06-23T12:44:00.288Z,6.80
2017-06-23T12:46:28.600Z,6.30
2017-06-23T12:48:57.676Z,5.85
2017-06-23T12:51:26.721Z,6.03
2017-06-23T12:53:55.007Z,6.57
2017-06-23T12:56:24.171Z,6.68
2017-06-23T12:58:52.440Z,6.53
2017-06-23T13:01:20.716Z,5.60
2017-06-23T13:03:49.032Z,5.30
2017-06-23T13:06:17.464Z,6.40
2017-06-23T13:08:46.507Z,5.80
2017-06-23T13:11:14.816Z,5.60
2017-06-23T13:13:43.084Z,5.13
2017-06-23T13:16:11.357Z,6.10
2017-06-23T13:18:39.702Z,6.70
2017-06-23T13:21:07.973Z,5.00
2017-06-23T13:23:36.255Z,5.67
2017-06-23T13:26:04.568Z,4.87
2017-06-23T13:28:33.599Z,4.63
2017-06-23T13:31:01.873Z,5.62
2017-06-23T13:33:30.184Z,5.13
2017-06-23T13:35:58.452Z,5.20
2017-06-23T13:38:26.747Z,4.83
2017-06-23T13:40:55.052Z,5.87
2017-06-23T13:43:24.128Z,4.93
2017-06-23T13:45:53.164Z,5.90
2017-06-23T13:48:21.476Z,5.00
2017-06-23T13:50:50.511Z,4.73
2017-06-23T13:53:18.796Z,4.90
2017-06-23T13:55:47.092Z,6.33
2017-06-23T13:58:15.364Z,5.30
2017-06-23T14:00:43.640Z,5.80
2017-06-23T14:03:11.956Z,5.00
2017-06-23T14:05:40.992Z,5.00
2017-06-23T14:08:09.264Z,5.30
2017-06-23T14:10:37.576Z,4.07
2017-06-23T14:13:05.846Z,5.40
2017-06-23T14:15:34.128Z,5.47
2017-06-23T14:18:02.540Z,5.20
2017-06-23T14:20:31.588Z,4.77
2017-06-23T14:22:59.864Z,6.00
2017-06-23T14:25:28.196Z,5.33
2017-06-23T14:27:56.471Z,4.30
2017-06-23T14:30:24.743Z,4.90
2017-06-23T14:32:53.240Z,4.67
2017-06-23T14:35:22.284Z,4.82
2017-06-23T14:37:50.564Z,4.60
2017-06-23T14:40:18.879Z,5.03
2017-06-23T14:42:47.155Z,5.30
2017-06-23T14:45:15.428Z,5.15
2017-06-23T14:47:43.754Z,4.65
2017-06-23T14:50:12.033Z,4.97
2017-06-23T14:52:40.309Z,5.70
2017-06-23T14:55:08.624Z,4.72
2017-06-23T14:57:36.912Z,4.68
2017-06-23T15:00:05.197Z,5.72
2017-06-23T15:02:33.511Z,4.75
2017-06-23T15:05:02.738Z,5.37
2017-06-23T15:07:31.024Z,5.15
2017-06-23T15:09:59.423Z,4.82
2017-06-23T15:12:27.703Z,4.53
2017-06-23T15:14:55.996Z,4.57
2017-06-23T15:17:24.419Z,4.22
2017-06-23T15:19:52.742Z,4.87
2017-06-23T15:22:21.802Z,4.80
2017-06-23T15:24:50.316Z,4.37
2017-06-23T15:27:18.612Z,4.37
2017-06-23T15:29:46.880Z,5.30
2017-06-23T15:32:15.187Z,4.73
2017-06-23T15:34:43.495Z,3.75
2017-06-23T15:37:11.780Z,4.30
2017-06-23T15:39:40.133Z,4.22
2017-06-23T15:42:08.415Z,4.30
2017-06-23T15:44:36.688Z,4.80
2017-06-23T15:47:05.781Z,4.90
2017-06-23T15:49:34.823Z,5.12
2017-06-23T15:52:03.096Z,4.43
2017-06-23T15:54:31.408Z,4.60
2017-06-23T15:56:59.684Z,5.15
2017-06-23T15:59:27.956Z,4.25
2017-06-23T16:01:56.463Z,4.87
2017-06-23T16:04:25.504Z,4.60
2017-06-23T16:06:53.784Z,4.55
2017-06-23T16:09:22.132Z,4.53
2017-06-23T16:11:50.406Z,4.93
2017-06-23T16:14:18.684Z,4.07
2017-06-23T16:16:47.773Z,3.58
2017-06-23T16:19:16.820Z,4.75
2017-06-23T16:21:45.117Z,4.32
2017-06-23T16:24:14.341Z,4.32
2017-06-23T16:26:42.619Z,3.97
2017-06-23T16:29:10.891Z,3.95
2017-06-23T16:31:39.228Z,4.18
2017-06-23T16:34:07.512Z,6.72
2017-06-23T16:36:35.788Z,3.85
2017-06-23T16:39:04.956Z,4.45
2017-06-23T16:41:33.228Z,4.30
2017-06-23T16:44:01.505Z,4.15
2017-06-23T16:46:30.612Z,4.90
2017-06-23T16:48:58.880Z,5.32
2017-06-23T16:51:27.388Z,4.20
2017-06-23T16:53:55.716Z,4.12
2017-06-23T16:56:24.004Z,3.80
2017-06-23T16:58:52.284Z,4.90
2017-06-23T17:01:20.605Z,5.22
2017-06-23T17:03:48.872Z,4.20
2017-06-23T17:06:17.153Z,4.12
2017-06-23T17:08:45.653Z,5.00
2017-06-23T17:11:14.691Z,4.30
2017-06-23T17:13:42.968Z,4.10
2017-06-23T17:16:11.295Z,4.43
2017-06-23T17:18:39.576Z,4.03
2017-06-23T17:21:07.849Z,4.35
2017-06-23T17:23:36.864Z,4.10
2017-06-23T17:26:05.240Z,4.30
2017-06-23T17:28:33.512Z,3.87
2017-06-23T17:31:01.947Z,4.60
2017-06-23T17:33:30.984Z,4.00
2017-06-23T17:35:59.259Z,3.65
2017-06-23T17:38:27.572Z,4.15
2017-06-23T17:40:55.856Z,5.00
2017-06-23T17:43:24.133Z,4.30
2017-06-23T17:45:52.443Z,4.20
2017-06-23T17:48:20.720Z,4.62
2017-06-23T17:50:49.024Z,3.87
2017-06-23T17:53:17.516Z,5.82
2017-06-23T17:55:46.556Z,4.47
2017-06-23T17:58:14.827Z,4.95
2017-06-23T18:00:43.132Z,5.85
2017-06-23T18:03:12.184Z,21.27
2017-06-23T18:05:40.456Z,3.97
2017-06-23T18:08:09.558Z,3.70
2017-06-23T18:10:37.851Z,4.05
2017-06-23T18:13:06.144Z,4.03
2017-06-23T18:15:34.452Z,4.35
2017-06-23T18:18:02.723Z,3.92
2017-06-23T18:20:31.000Z,12.80
2017-06-23T18:22:59.320Z,4.65
2017-06-23T18:25:28.355Z,4.00
2017-06-23T18:27:56.632Z,14.77
2017-06-23T18:30:24.952Z,4.75
2017-06-23T18:32:53.252Z,4.47
2017-06-23T18:35:21.530Z,6.32
2017-06-23T18:37:50.718Z,3.53
2017-06-23T18:40:19.749Z,3.75
2017-06-23T18:42:48.030Z,3.87
2017-06-23T18:45:16.544Z,4.47
2017-06-23T18:47:44.824Z,4.60
2017-06-23T18:50:13.104Z,4.05
2017-06-23T18:52:41.434Z,5.20
2017-06-23T18:55:09.724Z,4.25
2017-06-23T18:57:38.004Z,17.60
2017-06-23T19:00:06.316Z,4.32
2017-06-23T19:02:34.596Z,3.92
2017-06-23T19:05:02.868Z,4.93
2017-06-23T19:07:31.196Z,4.22
2017-06-23T19:09:59.467Z,3.65
2017-06-23T19:12:27.744Z,4.80
2017-06-23T19:14:56.172Z,4.22
2017-06-23T19:17:25.217Z,4.12
2017-06-23T19:19:53.484Z,4.72
2017-06-23T19:22:21.812Z,4.43
2017-06-23T19:24:50.092Z,4.45
2017-06-23T19:27:18.360Z,4.87
2017-06-23T19:29:46.680Z,4.28
2017-06-23T19:32:14.948Z,6.62
2017-06-23T19:34:43.228Z,4.35
2017-06-23T19:37:11.544Z,4.40
2017-06-23T19:39:40.580Z,4.00
2017-06-23T19:42:08.857Z,4.55
2017-06-23T19:44:37.345Z,4.55
2017-06-23T19:47:06.392Z,4.70
2017-06-23T19:49:34.673Z,4.90
2017-06-23T19:52:03.760Z,4.10
2017-06-23T19:54:32.796Z,5.03
2017-06-23T19:57:01.064Z,4.65
2017-06-23T19:59:29.367Z,4.60
2017-06-23T20:01:58.404Z,4.57
2017-06-23T20:04:26.679Z,5.68
2017-06-23T20:06:54.990Z,5.32
2017-06-23T20:09:23.260Z,5.45
2017-06-23T20:11:51.544Z,5.18
2017-06-23T20:14:19.898Z,4.85
2017-06-23T20:16:48.164Z,5.05
2017-06-23T20:19:16.475Z,5.97
2017-06-23T20:21:44.836Z,5.55
2017-06-23T20:24:13.884Z,4.57
2017-06-23T20:26:42.140Z,4.97
2017-06-23T20:29:11.391Z,4.32
2017-06-23T20:31:39.656Z,5.18
2017-06-23T20:34:07.933Z,5.30
2017-06-23T20:36:36.244Z,5.70
2017-06-23T20:39:05.276Z,4.97
2017-06-23T20:41:33.539Z,4.93
2017-06-23T20:44:01.852Z,4.35
2017-06-23T20:46:30.885Z,6.15
2017-06-23T20:48:59.188Z,4.95
2017-06-23T20:51:27.512Z,4.35
2017-06-23T20:53:55.781Z,5.70
2017-06-23T20:56:24.055Z,5.32
2017-06-23T20:58:52.368Z,5.90
2017-06-23T21:01:20.644Z,5.50
2017-06-23T21:03:48.961Z,6.00
2017-06-23T21:06:17.437Z,6.10
2017-06-23T21:08:46.472Z,5.07
2017-06-23T21:11:14.761Z,5.10
2017-06-23T21:13:43.966Z,5.22
2017-06-23T21:16:12.995Z,4.78
2017-06-23T21:18:41.268Z,6.18
2017-06-23T21:21:09.757Z,5.45
2017-06-23T21:23:38.024Z,5.95
2017-06-23T21:26:07.064Z,6.50
2017-06-23T21:28:35.511Z,5.53
2017-06-23T21:31:03.771Z,6.65
2017-06-23T21:33:32.101Z,5.05
2017-06-23T21:36:01.148Z,5.80
2017-06-23T21:38:30.284Z,6.00
2017-06-23T21:41:10.512Z,6.28
2017-06-23T21:43:38.776Z,5.65
2017-06-23T21:46:07.055Z,5.85
2017-06-23T21:48:35.387Z,5.93
2017-06-23T21:51:03.676Z,6.10
2017-06-23T21:53:31.949Z,6.30
2017-06-23T21:56:00.255Z,5.25
2017-06-23T21:58:29.291Z,6.93
2017-06-23T22:00:57.551Z,6.90
2017-06-23T22:03:25.863Z,7.07
2017-06-23T22:05:55.084Z,7.43
2017-06-23T22:08:23.348Z,6.37
2017-06-23T22:10:52.363Z,6.00
2017-06-23T22:13:20.632Z,5.95
2017-06-23T22:15:50.028Z,6.18
2017-06-23T22:18:19.113Z,6.20
2017-06-23T22:20:47.391Z,7.47
2017-06-23T22:23:15.664Z,6.97
2017-06-23T22:25:43.971Z,6.75
2017-06-23T22:28:12.548Z,6.47
2017-06-23T22:30:41.591Z,6.40
2017-06-23T22:33:10.108Z,6.37
2017-06-23T22:35:39.150Z,5.85
2017-06-23T22:38:07.426Z,6.20
2017-06-23T22:40:35.740Z,6.12
2017-06-23T22:43:04.012Z,6.00
2017-06-23T22:45:32.428Z,6.68
2017-06-23T22:48:01.500Z,6.82
2017-06-23T22:50:29.774Z,6.62
2017-06-23T22:52:58.808Z,6.03
2017-06-23T22:55:27.107Z,6.75
2017-06-23T22:57:56.139Z,5.60
2017-06-23T23:00:24.411Z,6.12
2017-06-23T23:02:52.727Z,5.80
2017-06-23T23:05:21.045Z,6.15
2017-06-23T23:07:49.344Z,5.50
2017-06-23T23:10:17.661Z,5.85
2017-06-23T23:12:45.988Z,6.55
2017-06-23T23:15:14.264Z,5.82
2017-06-23T23:17:42.590Z,5.30
2017-06-23T23:20:10.852Z,5.45
2017-06-23T23:22:39.884Z,5.87
2017-06-23T23:25:08.272Z,5.65
2017-06-23T23:27:38.548Z,6.30
2017-06-23T23:30:06.836Z,5.70
2017-06-23T23:32:35.333Z,5.32
2017-06-23T23:35:04.372Z,4.82
2017-06-23T23:37:32.648Z,5.12
2017-06-23T23:40:01.128Z,4.82
2017-06-23T23:42:30.164Z,4.20
2017-06-23T23:44:58.432Z,4.32
2017-06-23T23:47:26.740Z,3.85
2017-06-23T23:49:55.776Z,3.55
2017-06-23T23:52:24.044Z,3.35
2017-06-23T23:54:52.363Z,3.33
2017-06-23T23:57:20.636Z,4.28
2017-06-23T23:59:48.910Z,3.35
